Time;durP1;ratioP1;P1;durP2;ratioP2;P2;SDS_P1;SDS_P2;PMS_P1;PMS_P2;Temp;Humidity;BMP_temperature;BMP_pressure;BME280_temperature;BME280_humidity;BME280_pressure;Samples;Min_cycle;Max_cycle;Signal;HPM_P1;HPM_P2
2022/08/03 00:00:26;;;;;;;4.60;1.90;;;;;;;26.84;38.48;98233.81;4488519;32;20116;-79
2022/08/03 00:02:53;;;;;;;4.65;1.80;;;;;;;26.70;38.54;98242.41;4488724;31;20103;-80
2022/08/03 00:05:20;;;;;;;3.17;1.70;;;;;;;26.59;39.03;98237.44;4488667;31;20102;-80
2022/08/03 00:07:47;;;;;;;2.97;1.58;;;;;;;25.99;40.04;98235.69;4487438;32;20163;-80
2022/08/03 00:10:16;;;;;;;2.80;1.70;;;;;;;25.95;40.13;98229.91;4488659;31;20379;-81
2022/08/03 00:12:42;;;;;;;6.03;1.95;;;;;;;26.42;39.80;98247.13;4487445;32;20202;-81
2022/08/03 00:15:10;;;;;;;2.70;1.65;;;;;;;27.58;37.71;98246.09;4488075;31;20115;-81
2022/08/03 00:17:42;;;;;;;3.70;1.83;;;;;;;26.96;38.92;98235.16;4488734;31;20092;-80
2022/08/03 00:20:23;;;;;;;4.07;1.92;;;;;;;26.94;38.80;98236.31;4488700;31;20435;-81
2022/08/03 00:22:50;;;;;;;3.83;1.73;;;;;;;26.36;40.12;98237.16;4488370;31;20493;-80
2022/08/03 00:25:18;;;;;;;11.90;1.90;;;;;;;26.65;39.21;98236.75;4488418;31;20115;-81
2022/08/03 00:27:45;;;;;;;3.20;1.80;;;;;;;25.67;40.73;98231.03;4488569;31;20393;-81
2022/08/03 00:30:14;;;;;;;2.62;1.73;;;;;;;25.94;40.48;98227.41;4488349;31;20096;-80
2022/08/03 00:32:42;;;;;;;4.45;1.70;;;;;;;26.71;39.09;98236.12;4487539;32;20089;-80
2022/08/03 00:35:11;;;;;;;3.25;1.80;;;;;;;26.18;39.71;98232.81;4488448;31;20145;-80
2022/08/03 00:37:58;;;;;;;3.58;1.90;;;;;;;26.71;38.19;98234.31;4488861;31;20757;-80
2022/08/03 00:40:25;;;;;;;2.97;1.67;;;;;;;27.25;37.06;98226.75;4488839;31;20106;-80
2022/08/03 00:42:54;;;;;;;3.05;1.77;;;;;;;27.22;36.75;98229.75;4487414;32;20136;-80
2022/08/03 00:45:29;;;;;;;2.83;1.62;;;;;;;26.90;37.88;98234.97;4488530;31;20102;-80
2022/08/03 00:47:56;;;;;;;2.90;1.70;;;;;;;26.54;38.77;98229.97;4487506;32;20152;-80
2022/08/03 00:50:26;;;;;;;2.97;1.70;;;;;;;26.72;38.21;98229.84;4488616;31;20159;-80
2022/08/03 00:52:55;;;;;;;4.90;2.05;;;;;;;26.47;39.24;98229.78;4488390;31;20163;-81
2022/08/03 00:55:23;;;;;;;4.28;1.80;;;;;;;26.76;38.39;98226.69;4487414;32;20103;-80
2022/08/03 00:57:50;;;;;;;3.05;1.77;;;;;;;26.43;38.90;98225.81;4488420;31;20152;-81
2022/08/03 01:00:20;;;;;;;2.87;1.90;;;;;;;26.61;38.44;98230.16;4488929;31;20355;-81
2022/08/03 01:02:48;;;;;;;2.33;1.70;;;;;;;26.63;38.44;98225.53;4488920;31;20085;-81
2022/08/03 01:05:15;;;;;;;4.60;2.00;;;;;;;26.61;38.75;98230.16;4487964;31;20088;-81
2022/08/03 01:07:57;;;;;;;3.83;2.00;;;;;;;26.66;38.80;98230.47;4488469;31;20135;-81
2022/08/03 01:10:39;;;;;;;4.90;1.90;;;;;;;26.35;39.52;98225.75;4489396;31;20131;-81
2022/08/03 01:13:41;;;;;;;3.22;1.90;;;;;;;26.47;38.99;98215.72;4488853;31;20061;-81
2022/08/03 01:16:37;;;;;;;2.65;1.73;;;;;;;26.61;38.64;98225.69;4488788;31;20088;-80
2022/08/03 01:19:43;;;;;;;3.57;1.80;;;;;;;26.73;38.37;98226.19;4488458;31;20096;-81
2022/08/03 01:22:35;;;;;;;3.65;1.87;;;;;;;26.86;38.36;98228.38;4487699;32;20235;-80
2022/08/03 01:25:05;;;;;;;3.65;2.00;;;;;;;26.63;38.97;98228.16;4488100;31;20172;-80
2022/08/03 01:27:38;;;;;;;2.72;1.77;;;;;;;25.52;41.11;98214.94;4488639;31;20140;-81
2022/08/03 01:30:07;;;;;;;4.18;2.05;;;;;;;25.37;41.29;98221.75;4488473;31;20136;-80
2022/08/03 01:32:40;;;;;;;3.87;1.90;;;;;;;24.24;43.55;98211.72;4488099;31;20097;-81
2022/08/03 01:35:41;;;;;;;4.43;2.10;;;;;;;25.15;42.18;98225.72;4487297;32;20106;-81
2022/08/03 01:38:14;;;;;;;3.75;2.22;;;;;;;25.42;41.71;98223.94;4487146;32;20164;-80
2022/08/03 01:40:43;;;;;;;4.45;2.10;;;;;;;26.59;39.92;98224.19;4488089;31;20461;-80
2022/08/03 01:43:15;;;;;;;4.30;2.10;;;;;;;26.34;39.92;98220.62;4487153;32;20160;-81
2022/08/03 01:46:03;;;;;;;4.40;2.20;;;;;;;26.57;39.46;98218.22;4487237;32;20112;-81
2022/08/03 01:48:31;;;;;;;3.85;2.00;;;;;;;26.79;38.92;98222.88;4488355;31;20107;-81
2022/08/03 01:50:58;;;;;;;4.47;1.90;;;;;;;26.83;39.33;98218.09;4487037;32;20122;-80
2022/08/03 01:53:27;;;;;;;3.97;2.08;;;;;;;26.53;39.97;98217.72;4486460;32;20113;-80
2022/08/03 01:55:55;;;;;;;4.28;2.15;;;;;;;26.70;39.81;98213.31;4488246;31;20088;-80
2022/08/03 01:58:23;;;;;;;3.92;2.15;;;;;;;26.23;40.56;98219.09;4487099;32;20081;-81
2022/08/03 02:00:51;;;;;;;3.78;2.22;;;;;;;26.03;40.87;98207.94;4487860;31;20100;-80
2022/08/03 02:03:19;;;;;;;5.28;2.10;;;;;;;25.75;41.38;98203.88;4486985;32;20113;-81
2022/08/03 02:05:46;;;;;;;4.18;2.28;;;;;;;25.46;41.69;98204.97;4488796;31;20096;-81
2022/08/03 02:08:15;;;;;;;3.67;2.00;;;;;;;26.15;40.88;98211.94;4488479;31;20103;-81
2022/08/03 02:10:42;;;;;;;4.93;2.20;;;;;;;26.41;40.16;98201.34;4487319;32;20156;-81
2022/08/03 02:13:09;;;;;;;3.30;2.10;;;;;;;26.68;39.47;98205.50;4488619;31;20471;-81
2022/08/03 02:15:37;;;;;;;4.07;2.33;;;;;;;25.74;41.46;98191.62;4487044;32;20102;-81
2022/08/03 02:18:05;;;;;;;5.75;2.42;;;;;;;26.32;40.59;98207.56;4487988;31;20175;-80
2022/08/03 02:20:35;;;;;;;3.22;2.05;;;;;;;25.80;41.42;98199.75;4487074;32;20105;-80
2022/08/03 02:23:02;;;;;;;3.37;1.98;;;;;;;25.91;40.94;98199.47;4487838;31;20164;-80
2022/08/03 02:25:29;;;;;;;4.03;2.12;;;;;;;;;;4488012;31;20154;-80
2022/08/03 02:28:03;;;;;;;5.37;2.45;;;;;;;;;;4487649;32;20124;-80
2022/08/03 02:30:37;;;;;;;9.05;2.53;;;;;;;25.30;42.86;98199.56;4488337;31;20140;-81
2022/08/03 02:33:11;;;;;;;6.35;2.65;;;;;;;24.68;44.35;98198.72;4474337;32;20175;-80
2022/08/03 02:35:39;;;;;;;4.70;2.53;;;;;;;24.96;43.70;98197.66;4486379;32;20098;-80
2022/08/03 02:38:07;;;;;;;6.10;2.70;;;;;;;25.60;42.17;98193.81;4486614;32;20114;-80
2022/08/03 02:40:35;;;;;;;5.78;2.72;;;;;;;25.31;42.86;98196.81;4486699;32;20180;-80
2022/08/03 02:43:07;;;;;;;5.62;2.70;;;;;;;25.04;43.47;98204.84;4486700;32;20484;-81
2022/08/03 02:45:37;;;;;;;4.93;2.50;;;;;;;25.35;43.00;98200.78;4486869;32;20159;-81
2022/08/03 02:48:10;;;;;;;4.43;2.60;;;;;;;25.65;42.36;98201.31;4486773;32;20076;-80
2022/08/03 02:50:38;;;;;;;5.50;2.62;;;;;;;25.81;41.67;98201.41;4486384;32;20089;-80
2022/08/03 02:53:06;;;;;;;5.10;2.75;;;;;;;26.28;40.91;98205.41;4486237;32;20188;-80
2022/08/03 02:55:34;;;;;;;5.20;2.58;;;;;;;26.32;40.91;98206.72;4487290;31;20561;-80
2022/08/03 02:58:10;;;;;;;4.68;2.70;;;;;;;25.89;41.70;98196.16;4486060;32;20164;-80
2022/08/03 03:00:38;;;;;;;6.35;2.67;;;;;;;26.06;41.38;98194.41;4486449;32;20160;-80
2022/08/03 03:03:05;;;;;;;5.18;2.70;;;;;;;26.08;41.14;98200.38;4486054;32;20112;-80
2022/08/03 03:05:33;;;;;;;4.90;2.60;;;;;;;26.30;40.81;98206.06;4486162;32;20176;-80
2022/08/03 03:08:20;;;;;;;5.22;2.70;;;;;;;26.35;40.75;98198.47;4486351;32;20093;-80
2022/08/03 03:10:59;;;;;;;5.97;2.67;;;;;;;26.00;41.27;98202.16;4485889;32;20130;-80
2022/08/03 03:13:27;;;;;;;5.22;2.70;;;;;;;25.58;42.21;98201.09;4487226;31;20418;-80
2022/08/03 03:15:56;;;;;;;7.85;2.83;;;;;;;25.87;41.75;98205.25;4486253;32;20172;-80
2022/08/03 03:18:24;;;;;;;5.53;2.90;;;;;;;25.45;42.73;98203.31;4486832;31;20492;-80
2022/08/03 03:20:52;;;;;;;7.15;2.83;;;;;;;25.67;42.42;98210.72;4487524;31;20112;-80
2022/08/03 03:23:20;;;;;;;6.32;2.87;;;;;;;25.75;41.76;98202.06;4487553;31;20510;-80
2022/08/03 03:25:48;;;;;;;6.87;3.17;;;;;;;25.99;41.32;98203.16;4485777;32;20443;-80
2022/08/03 03:28:15;;;;;;;5.47;2.62;;;;;;;26.16;41.14;98202.22;4487177;31;20102;-80
2022/08/03 03:30:42;;;;;;;5.47;2.97;;;;;;;26.55;40.25;98204.31;4492097;31;20449;-81
2022/08/03 03:33:09;;;;;;;6.15;2.90;;;;;;;26.56;40.24;98198.88;4491152;32;20120;-80
2022/08/03 03:35:36;;;;;;;6.37;3.12;;;;;;;26.72;39.89;98204.19;4491155;32;20151;-80
2022/08/03 03:38:05;;;;;;;5.60;2.90;;;;;;;26.46;40.74;98201.66;4492043;31;20117;-80
2022/08/03 03:40:34;;;;;;;8.18;3.28;;;;;;;26.01;41.89;98193.22;4491410;32;20544;-81
2022/08/03 03:43:02;;;;;;;5.90;3.03;;;;;;;26.48;40.54;98193.59;4491756;32;20433;-80
2022/08/03 03:45:30;;;;;;;5.12;3.10;;;;;;;26.30;41.01;98192.84;4492186;31;20093;-81
2022/08/03 03:47:59;;;;;;;6.80;3.42;;;;;;;26.42;40.68;98196.88;4478534;32;20152;-80
2022/08/03 03:50:27;;;;;;;6.78;3.00;;;;;;;26.28;41.57;98197.47;4492979;31;20092;-81
2022/08/03 03:52:54;;;;;;;8.13;3.28;;;;;;;26.29;41.67;98199.12;4492833;31;20114;-81
2022/08/03 03:55:21;;;;;;;6.53;3.25;;;;;;;26.16;41.86;98205.69;4493286;31;20167;-81
2022/08/03 03:57:48;;;;;;;6.20;2.90;;;;;;;26.20;41.24;98199.09;4493389;32;20160;-80
2022/08/03 04:00:16;;;;;;;7.90;2.90;;;;;;;26.30;40.97;98203.41;4493119;32;20168;-81
2022/08/03 04:02:44;;;;;;;6.15;3.03;;;;;;;26.45;40.70;98207.94;4494521;31;20152;-81
2022/08/03 04:11:17;;;;;;;4.95;2.60;;;;;;;27.99;37.11;98208.06;4498094;31;20145;-81
2022/08/03 04:13:58;;;;;;;4.95;2.53;;;;;;;28.70;35.56;98209.69;4490333;32;20096;-81
2022/08/03 04:16:30;;;;;;;6.95;2.53;;;;;;;29.35;35.32;98217.19;4497775;31;20096;-81
2022/08/03 04:19:02;;;;;;;6.55;3.03;;;;;;;29.88;33.80;98225.94;4496958;32;20135;-81
2022/08/03 04:21:30;;;;;;;6.72;2.70;;;;;;;30.69;32.89;98232.94;4497422;31;20101;-81
2022/08/03 04:24:00;;;;;;;4.32;2.60;;;;;;;31.30;31.74;98232.53;4494472;32;20179;-82
2022/08/03 04:26:32;;;;;;;6.82;2.78;;;;;;;32.16;29.84;98233.09;4496416;31;20064;-82
2022/08/03 04:28:59;;;;;;;5.95;2.92;;;;;;;32.75;29.18;98240.50;4492298;32;20144;-82
2022/08/03 04:31:27;;;;;;;5.30;2.60;;;;;;;32.87;29.38;98236.25;4488340;32;141364;-81
2022/08/03 04:33:54;;;;;;;6.37;2.85;;;;;;;33.65;28.03;98240.00;4493983;31;20176;-82
2022/08/03 04:36:24;;;;;;;4.60;2.70;;;;;;;33.22;29.32;98236.09;4494755;32;20061;-82
2022/08/03 04:39:04;;;;;;;8.30;3.00;;;;;;;33.27;28.21;98247.78;4497781;32;20071;-82
2022/08/03 04:41:31;;;;;;;5.70;3.28;;;;;;;30.34;31.84;98241.75;4493920;32;20085;-80
2022/08/03 04:44:18;;;;;;;5.87;2.85;;;;;;;32.40;29.74;98245.97;4494582;32;20060;-81
2022/08/03 04:46:45;;;;;;;6.03;2.92;;;;;;;34.03;27.07;98250.03;4492496;32;20766;-82
2022/08/03 04:49:19;;;;;;;5.43;2.60;;;;;;;35.09;25.72;98244.16;4492109;32;20153;-81
2022/08/03 04:51:48;;;;;;;7.22;2.60;;;;;;;35.63;24.74;98253.47;4494929;31;20463;-81
2022/08/03 04:54:15;;;;;;;4.05;2.42;;;;;;;35.55;24.90;98256.44;4493068;32;20164;-82
2022/08/03 04:56:42;;;;;;;5.72;2.65;;;;;;;36.13;24.24;98262.25;4492210;32;20106;-82
2022/08/03 04:59:10;;;;;;;5.95;2.58;;;;;;;36.82;23.62;98257.53;4493638;31;20099;-82
2022/08/03 05:01:38;;;;;;;6.30;2.67;;;;;;;37.92;22.46;98259.69;4495827;31;20057;-82
2022/08/03 05:04:07;;;;;;;7.82;2.90;;;;;;;38.91;21.26;98262.22;4493727;32;20105;-82
2022/08/03 05:06:33;;;;;;;4.87;2.60;;;;;;;39.46;20.74;98265.09;4494760;31;20092;-82
2022/08/03 05:09:07;;;;;;;4.37;2.22;;;;;;;40.16;20.30;98267.19;4494325;31;20098;-82
2022/08/03 05:11:34;;;;;;;3.87;2.60;;;;;;;40.02;20.84;98267.84;4494172;31;20714;-82
2022/08/03 05:14:01;;;;;;;5.95;2.53;;;;;;;39.87;21.05;98271.09;4494113;31;20407;-82
2022/08/03 05:16:28;;;;;;;5.05;2.72;;;;;;;40.41;20.97;98274.81;4493374;31;20108;-81
2022/08/03 05:18:55;;;;;;;3.90;2.50;;;;;;;40.73;20.44;98279.53;4494185;31;20139;-82
2022/08/03 05:21:21;;;;;;;6.07;3.22;;;;;;;41.31;19.93;98267.94;4494351;31;20086;-82
2022/08/03 05:23:48;;;;;;;4.65;2.80;;;;;;;41.57;19.28;98273.53;4495039;31;20152;-82
2022/08/03 05:26:15;;;;;;;6.15;2.78;;;;;;;42.16;19.05;98278.81;4494196;31;20152;-82
2022/08/03 05:28:42;;;;;;;4.80;2.90;;;;;;;41.44;19.59;98272.09;4493494;31;20692;-82
2022/08/03 05:31:16;;;;;;;4.78;2.80;;;;;;;41.49;19.82;98280.28;4493436;31;20084;-82
2022/08/03 05:33:43;;;;;;;3.83;2.75;;;;;;;41.98;19.92;98280.03;4494305;31;20157;-80
2022/08/03 05:36:11;;;;;;;5.95;2.97;;;;;;;40.90;20.51;98277.56;4494360;31;20112;-82
2022/08/03 05:38:38;;;;;;;4.70;3.03;;;;;;;39.75;21.77;98276.59;4493806;31;20078;-82
2022/08/03 05:41:05;;;;;;;7.20;3.22;;;;;;;36.42;26.67;98276.00;4497306;31;20148;-82
2022/08/03 05:43:49;;;;;;;5.00;3.00;;;;;;;36.93;25.72;98266.66;4497009;32;20120;-80
2022/08/03 05:46:16;;;;;;;4.40;2.75;;;;;;;35.98;26.93;98267.19;4495421;31;20089;-82
2022/08/03 05:48:43;;;;;;;5.90;3.20;;;;;;;36.12;26.85;98265.16;4496108;31;20108;-82
2022/08/03 05:51:10;;;;;;;6.22;3.40;;;;;;;35.70;27.57;98274.88;4495798;31;20100;-82
2022/08/03 05:53:39;;;;;;;5.20;3.05;;;;;;;34.59;29.15;98264.69;4490422;31;20068;-82
2022/08/03 05:56:06;;;;;;;8.57;3.45;;;;;;;34.08;29.68;98273.50;4494192;31;20101;-81
2022/08/03 05:58:44;;;;;;;7.95;3.20;;;;;;;34.22;30.05;98278.59;4487922;31;20381;-82
2022/08/03 06:01:11;;;;;;;6.12;3.30;;;;;;;32.96;31.94;98275.12;4490591;31;20089;-82
2022/08/03 06:03:38;;;;;;;6.45;3.25;;;;;;;32.68;32.14;98272.56;4486721;31;20345;-83
2022/08/03 06:06:05;;;;;;;6.97;3.50;;;;;;;32.89;32.72;98274.28;4486765;31;20449;-84
2022/08/03 06:08:33;;;;;;;6.18;3.20;;;;;;;32.24;33.17;98286.31;4486411;31;20096;-84
2022/08/03 06:11:00;;;;;;;5.87;3.40;;;;;;;32.07;33.38;98279.66;4486647;31;20089;-84
2022/08/03 06:13:27;;;;;;;6.80;3.53;;;;;;;30.97;35.53;98277.50;4486714;31;20400;-87
2022/08/03 06:15:54;;;;;;;7.53;3.83;;;;;;;30.90;35.44;98282.75;4487280;31;20502;-89
2022/08/03 06:18:22;;;;;;;6.30;3.65;;;;;;;30.21;36.47;98282.31;4487893;31;20091;-87
2022/08/03 06:20:49;;;;;;;7.05;3.33;;;;;;;29.79;38.15;98286.41;4489551;31;20114;-85
2022/08/03 06:23:17;;;;;;;7.55;3.90;;;;;;;30.21;36.84;98291.13;4486397;31;20088;-84
2022/08/03 06:25:45;;;;;;;5.90;3.42;;;;;;;29.84;37.28;98292.00;4486914;31;20375;-82
2022/08/03 06:28:13;;;;;;;8.73;3.75;;;;;;;29.70;37.58;98292.00;4485939;31;20152;-84
2022/08/03 06:31:01;;;;;;;6.28;3.65;;;;;;;30.16;36.80;98293.50;4486806;31;20104;-85
2022/08/03 06:33:28;;;;;;;6.68;3.55;;;;;;;28.81;39.42;98297.72;4486499;31;20439;-83
2022/08/03 06:36:15;;;;;;;6.50;3.70;;;;;;;28.45;40.44;98297.44;4486720;31;20092;-83
2022/08/03 06:38:42;;;;;;;8.93;3.90;;;;;;;29.07;39.41;98302.75;4484758;32;20073;-83
2022/08/03 06:41:09;;;;;;;7.78;3.60;;;;;;;29.94;37.78;98305.84;4485860;31;20088;-82
2022/08/03 06:43:36;;;;;;;7.45;3.70;;;;;;;29.60;39.94;98308.19;4485831;31;20490;-83
2022/08/03 06:46:23;;;;;;;9.60;3.78;;;;;;;29.87;38.71;98298.78;4484891;31;20113;-82
2022/08/03 06:48:51;;;;;;;8.90;4.57;;;;;;;29.37;41.01;98305.53;4485302;31;20119;-82
2022/08/03 06:51:18;;;;;;;7.75;3.90;;;;;;;30.54;38.21;98301.37;4486088;31;20088;-81
2022/08/03 06:53:45;;;;;;;11.60;4.53;;;;;;;28.36;42.24;98294.97;4485964;31;20168;-82
2022/08/03 06:56:19;;;;;;;10.13;4.28;;;;;;;30.05;39.34;98309.91;4486032;31;20100;-83
2022/08/03 06:58:50;;;;;;;7.53;3.97;;;;;;;29.27;41.06;98305.78;4486174;32;20096;-82
2022/08/03 07:01:17;;;;;;;9.88;4.20;;;;;;;29.60;40.00;98306.34;4486672;31;20648;-83
2022/08/03 07:03:44;;;;;;;8.25;4.57;;;;;;;29.02;40.25;98317.56;4485133;31;20111;-83
2022/08/03 07:06:18;;;;;;;8.73;4.80;;;;;;;29.51;39.91;98311.94;4486727;31;20084;-82
2022/08/03 07:08:45;;;;;;;11.25;5.32;;;;;;;29.10;40.90;98309.53;4485886;31;20570;-82
2022/08/03 07:11:18;;;;;;;11.70;5.20;;;;;;;28.48;41.58;98305.03;4486322;31;20595;-82
2022/08/03 07:13:45;;;;;;;11.18;5.50;;;;;;;28.37;41.93;98302.78;4486208;31;20419;-81
2022/08/03 07:16:12;;;;;;;10.02;5.78;;;;;;;29.35;40.99;98307.56;4485714;31;20511;-81
2022/08/03 07:18:39;;;;;;;11.55;6.00;;;;;;;29.46;40.56;98309.78;4485379;31;20548;-83
2022/08/03 07:21:08;;;;;;;12.40;5.53;;;;;;;28.81;42.28;98316.31;4486325;31;20105;-81
2022/08/03 07:23:35;;;;;;;10.80;5.20;;;;;;;30.60;38.77;98310.44;4486272;31;20155;-82
2022/08/03 07:26:02;;;;;;;12.60;7.57;;;;;;;30.51;38.92;98315.87;4486292;31;20551;-82
2022/08/03 07:28:29;;;;;;;11.40;6.03;;;;;;;30.60;39.12;98311.25;4484726;32;20072;-82
2022/08/03 07:30:58;;;;;;;12.27;6.75;;;;;;;30.89;38.51;98314.91;4485983;31;20148;-81
2022/08/03 07:33:25;;;;;;;13.32;7.20;;;;;;;30.41;39.49;98326.00;4486023;31;20092;-82
2022/08/03 07:35:52;;;;;;;10.48;6.22;;;;;;;30.66;39.31;98320.41;4485789;31;20140;-83
2022/08/03 07:38:19;;;;;;;11.30;6.03;;;;;;;30.80;38.70;98319.53;4485127;31;20088;-83
2022/08/03 07:40:47;;;;;;;9.68;5.80;;;;;;;30.62;38.78;98322.56;4485798;31;20161;-81
2022/08/03 07:43:16;;;;;;;11.77;5.50;;;;;;;30.89;37.85;98317.59;4486005;31;20538;-81
2022/08/03 07:45:43;;;;;;;10.57;5.65;;;;;;;31.06;37.53;98324.34;4486106;31;20103;-81
2022/08/03 07:48:10;;;;;;;12.70;6.60;;;;;;;30.45;38.09;98327.28;4485227;31;20136;-81
2022/08/03 07:50:38;;;;;;;10.70;6.25;;;;;;;31.77;36.80;98325.22;4485382;31;20493;-81
2022/08/03 07:53:05;;;;;;;12.15;6.30;;;;;;;32.41;35.01;98329.56;4484141;32;20108;-81
2022/08/03 07:55:32;;;;;;;11.48;5.43;;;;;;;31.53;36.51;98322.94;4492990;31;20080;-81
2022/08/03 07:58:16;;;;;;;12.07;5.65;;;;;;;30.32;39.07;98320.97;4500449;31;20081;-81
2022/08/03 08:00:51;;;;;;;9.40;5.20;;;;;;;31.00;37.85;98320.56;4500369;31;20104;-81
2022/08/03 08:03:20;;;;;;;12.37;5.50;;;;;;;30.49;38.47;98325.06;4501927;31;20119;-81
2022/08/03 08:05:48;;;;;;;9.02;5.03;;;;;;;31.59;37.07;98322.19;4501552;31;20152;-81
2022/08/03 08:08:15;;;;;;;9.23;5.20;;;;;;;32.04;35.66;98325.44;4501576;31;20131;-81
2022/08/03 08:10:41;;;;;;;9.23;5.12;;;;;;;31.46;36.90;98330.88;4501496;31;20128;-81
2022/08/03 08:13:24;;;;;;;11.02;5.45;;;;;;;30.48;38.02;98328.72;4501354;31;20167;-81
2022/08/03 08:15:51;;;;;;;9.40;4.90;;;;;;;30.30;38.48;98331.75;4502384;31;20123;-81
2022/08/03 08:18:18;;;;;;;9.07;4.80;;;;;;;32.37;35.70;98339.00;4502832;31;20095;-81
2022/08/03 08:20:45;;;;;;;11.02;5.65;;;;;;;32.01;36.00;98331.13;4502806;31;20108;-81
2022/08/03 08:23:12;;;;;;;11.80;5.15;;;;;;;32.20;36.07;98331.25;4503640;31;20158;-81
2022/08/03 08:25:59;;;;;;;7.50;4.00;;;;;;;31.79;36.93;98325.03;4502838;31;20378;-81
2022/08/03 08:28:26;;;;;;;8.68;4.20;;;;;;;31.28;35.11;98325.19;4502627;31;20358;-81
2022/08/03 08:31:02;;;;;;;8.55;4.45;;;;;;;32.10;34.24;98324.63;4503420;31;20092;-80
2022/08/03 08:33:29;;;;;;;8.20;4.03;;;;;;;32.53;33.82;98323.44;4502799;31;20096;-80
2022/08/03 08:36:13;;;;;;;8.35;4.43;;;;;;;33.19;32.76;98324.72;4503047;31;20167;-80
2022/08/03 08:38:43;;;;;;;9.63;4.28;;;;;;;31.12;36.52;98323.56;4502152;31;20107;-81
2022/08/03 08:41:12;;;;;;;9.75;4.28;;;;;;;32.14;35.16;98328.56;4502845;31;20115;-80
2022/08/03 08:43:41;;;;;;;8.27;4.40;;;;;;;31.28;35.19;98327.88;4502948;31;20423;-81
2022/08/03 08:46:12;;;;;;;8.70;4.20;;;;;;;33.46;32.63;98320.25;4502603;31;20118;-80
2022/08/03 08:48:50;;;;;;;7.60;3.87;;;;;;;33.24;32.46;98323.06;4501937;31;20080;-81
2022/08/03 08:51:21;;;;;;;8.63;4.62;;;;;;;32.28;33.65;98330.28;4502086;31;20366;-80
2022/08/03 08:53:52;;;;;;;9.82;3.90;;;;;;;33.69;31.68;98325.19;4501655;31;20163;-80
2022/08/03 08:56:24;;;;;;;9.48;4.32;;;;;;;32.14;33.79;98325.91;4502654;31;20102;-81
2022/08/03 08:58:57;;;;;;;7.28;4.03;;;;;;;33.81;31.64;98320.84;4502128;31;20084;-81
2022/08/03 09:01:24;;;;;;;7.40;4.22;;;;;;;31.88;34.07;98324.69;4502788;31;20450;-80
2022/08/03 09:03:52;;;;;;;11.63;4.70;;;;;;;32.30;33.31;98317.59;4488529;31;20207;-80
2022/08/03 09:06:20;;;;;;;8.10;4.60;;;;;;;33.03;34.14;98317.91;4502879;31;20080;-80
2022/08/03 09:08:47;;;;;;;10.23;4.62;;;;;;;33.93;30.76;98314.72;4501867;31;20151;-80
2022/08/03 09:11:14;;;;;;;6.95;3.53;;;;;;;34.68;29.81;98314.31;4503150;31;20148;-80
2022/08/03 09:13:41;;;;;;;9.07;3.90;;;;;;;33.84;30.47;98313.25;4502723;31;20099;-80
2022/08/03 09:16:14;;;;;;;8.63;3.90;;;;;;;34.01;30.01;98310.16;4502428;31;20092;-81
2022/08/03 09:18:47;;;;;;;6.57;3.67;;;;;;;34.35;29.44;98311.72;4501871;31;20108;-81
2022/08/03 09:21:15;;;;;;;8.13;4.07;;;;;;;32.51;33.02;98314.00;4502894;31;20406;-80
2022/08/03 09:24:02;;;;;;;7.47;3.87;;;;;;;34.00;30.24;98311.19;4502486;31;20117;-80
2022/08/03 09:26:34;;;;;;;9.23;4.22;;;;;;;35.35;28.29;98310.22;4502152;31;20166;-80
2022/08/03 09:29:04;;;;;;;8.73;4.53;;;;;;;34.47;29.59;98307.41;4501584;31;20144;-80
2022/08/03 09:31:41;;;;;;;7.90;4.10;;;;;;;34.16;30.29;98303.53;4502836;31;20088;-80
2022/08/03 09:34:12;;;;;;;7.70;4.00;;;;;;;34.61;29.23;98305.47;4502960;31;20095;-79
2022/08/03 09:36:40;;;;;;;10.75;4.53;;;;;;;33.19;31.68;98298.81;4501922;31;20158;-79
2022/08/03 09:39:10;;;;;;;7.05;4.03;;;;;;;34.84;29.45;98300.41;4500627;31;20112;-80
2022/08/03 09:41:42;;;;;;;7.60;3.60;;;;;;;34.75;29.47;98302.50;4500736;31;20107;-79
2022/08/03 09:44:09;;;;;;;7.40;4.05;;;;;;;33.47;30.78;98295.97;4499591;31;20153;-79
2022/08/03 09:46:54;;;;;;;8.38;4.30;;;;;;;35.18;28.47;98301.87;4502005;31;20106;-80
2022/08/03 09:49:21;;;;;;;7.55;4.12;;;;;;;34.89;28.95;98294.44;4501860;31;20106;-80
2022/08/03 09:51:48;;;;;;;7.78;3.80;;;;;;;35.85;27.38;98297.66;4499566;31;20103;-80
2022/08/03 09:54:36;;;;;;;8.88;3.70;;;;;;;33.64;29.75;98291.88;4501463;31;20111;-79
2022/08/03 09:57:03;;;;;;;6.32;3.67;;;;;;;33.47;28.20;98301.31;4501394;31;20151;-81
2022/08/03 09:59:31;;;;;;;6.80;4.03;;;;;;;34.91;27.87;98289.69;4501864;31;20136;-80
2022/08/03 10:01:59;;;;;;;7.43;4.00;;;;;;;35.98;26.38;98298.59;4502320;31;20503;-80
2022/08/03 10:04:26;;;;;;;7.75;3.60;;;;;;;36.36;25.94;98293.84;4502165;31;20195;-80
2022/08/03 10:07:08;;;;;;;7.05;3.78;;;;;;;34.64;27.37;98297.81;4502177;31;20114;-80
2022/08/03 10:09:36;;;;;;;7.22;3.67;;;;;;;35.64;25.91;98288.13;4501568;31;20072;-80
2022/08/03 10:12:13;;;;;;;10.60;4.62;;;;;;;36.38;25.52;98293.63;4502066;31;20444;-80
2022/08/03 10:14:44;;;;;;;10.75;5.30;;;;;;;35.80;28.11;98291.28;4502541;31;20113;-80
2022/08/03 10:17:11;;;;;;;8.10;4.30;;;;;;;35.76;27.58;98295.47;4502030;31;20183;-80
2022/08/03 10:19:39;;;;;;;9.23;4.40;;;;;;;35.88;27.01;98286.50;4501463;31;20080;-80
2022/08/03 10:22:12;;;;;;;8.20;4.12;;;;;;;34.90;28.50;98278.16;4502209;31;20418;-81
2022/08/03 10:24:47;;;;;;;9.43;4.75;;;;;;;35.82;26.97;98281.16;4502334;31;20178;-81
2022/08/03 10:27:14;;;;;;;8.90;4.15;;;;;;;36.73;26.58;98278.50;4502252;31;20531;-80
2022/08/03 10:29:45;;;;;;;9.68;4.40;;;;;;;36.42;25.78;98282.19;4500340;31;20520;-80
2022/08/03 10:32:17;;;;;;;7.60;3.83;;;;;;;36.53;25.26;98274.44;4500375;31;20511;-80
2022/08/03 10:34:45;;;;;;;6.87;3.87;;;;;;;36.81;24.53;98274.66;4502524;31;20113;-80
2022/08/03 10:37:14;;;;;;;7.75;3.80;;;;;;;34.99;26.98;98270.69;4501112;31;20091;-80
2022/08/03 10:39:52;;;;;;;7.78;3.65;;;;;;;37.53;23.30;98264.69;4499626;31;20122;-80
2022/08/03 10:42:38;;;;;;;7.40;3.70;;;;;;;36.40;24.89;98262.81;4502167;31;20466;-81
2022/08/03 10:45:22;;;;;;;8.40;4.18;;;;;;;35.92;26.30;98263.50;4502113;31;20111;-80
2022/08/03 10:47:51;;;;;;;9.18;4.30;;;;;;;35.64;27.41;98250.56;4501276;31;20096;-80
2022/08/03 10:50:18;;;;;;;7.80;4.03;;;;;;;35.14;27.90;98243.53;4502256;31;20147;-80
2022/08/03 10:53:00;;;;;;;8.27;4.00;;;;;;;34.56;28.37;98246.34;4501867;31;20163;-80
2022/08/03 10:58:36;;;;;;;9.05;5.07;;;;;;;34.45;28.00;98242.47;4499974;31;20095;-81
2022/08/03 11:01:49;;;;;;;7.22;3.78;;;;;;;35.25;27.66;98246.34;4501941;31;20071;-81
2022/08/03 11:04:28;;;;;;;7.95;4.20;;;;;;;34.19;28.79;98252.25;4500797;31;20096;-81
2022/08/03 11:07:21;;;;;;;7.25;3.50;;;;;;;34.68;27.86;98241.97;4502488;31;20092;-80
2022/08/03 11:09:52;;;;;;;7.43;3.55;;;;;;;34.14;27.90;98249.38;4501797;31;20145;-80
2022/08/03 11:12:25;;;;;;;7.35;3.65;;;;;;;36.29;24.38;98254.66;4501978;31;20726;-81
2022/08/03 11:14:59;;;;;;;6.18;3.58;;;;;;;36.40;24.38;98251.25;4501603;31;20156;-81
2022/08/03 11:17:26;;;;;;;6.37;3.53;;;;;;;34.76;27.04;98245.19;4501801;31;20114;-81
2022/08/03 11:19:53;;;;;;;7.45;3.85;;;;;;;36.19;26.37;98239.06;4501481;31;20111;-81
2022/08/03 11:22:23;;;;;;;7.72;3.72;;;;;;;35.13;26.43;98244.59;4499962;31;20435;-81
2022/08/03 11:24:52;;;;;;;7.12;3.80;;;;;;;37.41;23.48;98236.12;4502034;31;20116;-81
2022/08/03 11:27:21;;;;;;;6.47;3.60;;;;;;;37.18;23.78;98234.22;4501870;31;20149;-81
2022/08/03 11:30:09;;;;;;;6.40;3.58;;;;;;;36.61;23.64;98233.81;4500728;31;20115;-81
2022/08/03 11:32:39;;;;;;;7.47;3.60;;;;;;;35.45;24.79;98223.91;4501547;31;20083;-82
2022/08/03 11:35:32;;;;;;;6.22;3.17;;;;;;;35.14;25.15;98224.78;4501578;31;20104;-80
2022/08/03 11:37:59;;;;;;;7.72;3.47;;;;;;;36.01;24.72;98225.63;4500113;31;20100;-82
2022/08/03 11:40:45;;;;;;;8.18;3.60;;;;;;;36.58;23.42;98218.09;4501574;31;20494;-81
2022/08/03 11:43:24;;;;;;;7.18;3.75;;;;;;;35.53;24.46;98216.41;4501127;31;20075;-81
2022/08/03 11:46:12;;;;;;;6.47;3.53;;;;;;;35.46;24.95;98229.06;4501880;31;20104;-81
2022/08/03 11:48:57;;;;;;;9.73;3.70;;;;;;;36.25;23.18;98227.41;4500654;31;20126;-81
2022/08/03 11:51:27;;;;;;;7.40;3.85;;;;;;;37.02;22.18;98206.94;4502608;31;20096;-80
2022/08/03 11:54:10;;;;;;;7.68;3.90;;;;;;;36.92;22.75;98212.06;4502761;31;20147;-81
2022/08/03 11:56:48;;;;;;;6.87;3.72;;;;;;;37.25;22.82;98213.41;4503552;31;20111;-81
2022/08/03 11:59:18;;;;;;;8.82;3.83;;;;;;;37.67;22.52;98200.69;4502527;31;20112;-82
2022/08/03 12:01:48;;;;;;;7.15;3.78;;;;;;;37.71;22.33;98203.72;4503716;31;20179;-81